createdAt,value
2022-09-28T00:01:55.147Z,87.41
2022-09-28T00:04:21.919Z,86.94
2022-09-28T00:06:48.814Z,87.45
2022-09-28T00:09:16.618Z,87.29
2022-09-28T00:11:43.782Z,87.59
2022-09-28T00:14:11.250Z,87.45
2022-09-28T00:16:40.521Z,87.53
2022-09-28T00:19:08.176Z,87.11
2022-09-28T00:21:37.183Z,87.21
2022-09-28T00:24:17.166Z,86.77
2022-09-28T00:26:51.934Z,87.19
2022-09-28T00:29:22.703Z,87.39
2022-09-28T00:31:52.489Z,87.07
2022-09-28T00:34:19.331Z,87.63
2022-09-28T00:36:47.008Z,87.77
2022-09-28T00:39:14.713Z,87.08
2022-09-28T00:41:41.859Z,87.33
2022-09-28T00:44:26.280Z,86.65
2022-09-28T00:46:58.039Z,86.80
2022-09-28T00:49:33.903Z,86.97
2022-09-28T00:52:02.713Z,86.50
2022-09-28T00:54:29.079Z,86.35
2022-09-28T00:56:56.187Z,87.05
2022-09-28T00:59:24.703Z,87.37
2022-09-28T01:01:51.193Z,86.61
2022-09-28T01:04:17.954Z,87.51
2022-09-28T01:06:46.547Z,87.63
2022-09-28T01:09:14.311Z,87.59
2022-09-28T01:11:42.232Z,87.41
2022-09-28T01:14:11.767Z,87.42
2022-09-28T01:17:00.257Z,87.31
2022-09-28T01:19:46.263Z,86.90
2022-09-28T01:22:27.121Z,87.69
2022-09-28T01:25:08.079Z,87.57
2022-09-28T01:27:42.372Z,87.61
2022-09-28T01:30:14.446Z,87.71
2022-09-28T01:33:03.385Z,87.58
2022-09-28T01:35:35.301Z,87.36
2022-09-28T01:38:12.778Z,87.60
2022-09-28T01:40:40.352Z,87.09
2022-09-28T01:43:11.365Z,87.44
2022-09-28T01:45:46.341Z,88.22
2022-09-28T01:48:19.486Z,87.69
2022-09-28T01:50:50.441Z,87.78
2022-09-28T01:53:23.086Z,87.93
2022-09-28T01:55:55.302Z,88.10
2022-09-28T01:58:30.081Z,88.33
2022-09-28T02:01:03.005Z,88.13
2022-09-28T02:03:42.817Z,88.13
2022-09-28T02:06:17.643Z,87.75
2022-09-28T02:08:51.568Z,87.57
2022-09-28T02:11:20.135Z,87.44
2022-09-28T02:14:00.722Z,87.62
2022-09-28T02:16:30.103Z,87.80
2022-09-28T02:18:56.849Z,87.52
2022-09-28T02:21:29.081Z,87.66
2022-09-28T02:24:03.219Z,87.53
2022-09-28T02:26:34.620Z,87.75
2022-09-28T02:29:00.976Z,87.81
2022-09-28T02:31:27.933Z,88.06
2022-09-28T02:33:56.906Z,87.49
2022-09-28T02:36:26.266Z,87.30
2022-09-28T02:38:53.238Z,87.89
2022-09-28T02:41:49.506Z,88.07
2022-09-28T02:44:43.286Z,87.71
2022-09-28T02:47:43.512Z,88.00
2022-09-28T02:50:26.534Z,87.80
2022-09-28T02:53:08.431Z,87.70
2022-09-28T02:55:40.738Z,88.11
2022-09-28T02:58:33.834Z,88.97
2022-09-28T03:01:18.499Z,88.46
2022-09-28T03:04:00.081Z,89.12
2022-09-28T03:06:44.886Z,88.59
2022-09-28T03:09:22.916Z,90.45
2022-09-28T03:11:56.813Z,89.75
2022-09-28T03:14:23.191Z,89.41
2022-09-28T03:16:49.518Z,89.34
2022-09-28T03:19:24.743Z,89.45
2022-09-28T03:21:51.108Z,89.40
2022-09-28T03:24:17.404Z,89.57
2022-09-28T03:26:43.709Z,89.63
2022-09-28T03:29:10.126Z,89.67
2022-09-28T03:31:36.623Z,89.34
2022-09-28T03:34:03.088Z,89.17
2022-09-28T03:36:29.470Z,89.11
2022-09-28T03:38:56.104Z,89.06
2022-09-28T03:41:24.071Z,89.19
2022-09-28T03:43:50.558Z,89.55
2022-09-28T03:46:17.017Z,89.06
2022-09-28T03:48:43.412Z,89.05
2022-09-28T03:51:10.722Z,88.99
2022-09-28T03:53:37.509Z,89.14
2022-09-28T03:56:21.978Z,89.34
2022-09-28T03:58:48.317Z,89.09
2022-09-28T04:01:18.421Z,88.89
2022-09-28T04:03:45.598Z,88.76
2022-09-28T04:06:11.979Z,88.45
2022-09-28T04:08:38.338Z,88.47
2022-09-28T04:11:05.289Z,88.41
2022-09-28T04:13:32.000Z,88.50
2022-09-28T04:16:00.593Z,87.91
2022-09-28T04:18:27.589Z,88.01
2022-09-28T04:21:09.064Z,87.99
2022-09-28T04:23:37.113Z,88.18
2022-09-28T04:26:05.266Z,88.34
2022-09-28T04:28:50.240Z,87.81
2022-09-28T04:31:19.294Z,87.59
2022-09-28T04:33:46.006Z,87.88
2022-09-28T04:36:12.612Z,87.66
2022-09-28T04:38:55.761Z,87.85
2022-09-28T04:41:22.586Z,87.34
2022-09-28T04:43:50.125Z,87.17
2022-09-28T04:46:16.922Z,87.39
2022-09-28T04:48:43.352Z,87.39
2022-09-28T04:51:09.904Z,87.14
2022-09-28T04:53:36.435Z,87.56
2022-09-28T04:56:09.688Z,87.70
2022-09-28T04:58:36.525Z,87.46
2022-09-28T05:01:06.865Z,87.48
2022-09-28T05:03:34.140Z,88.17
2022-09-28T05:06:01.079Z,87.96
2022-09-28T05:08:28.379Z,87.34
2022-09-28T05:11:03.755Z,87.52
2022-09-28T05:13:31.347Z,87.19
2022-09-28T05:16:04.330Z,87.57
2022-09-28T05:18:31.717Z,87.42
2022-09-28T05:20:58.402Z,87.85
2022-09-28T05:23:24.774Z,87.42
2022-09-28T05:25:51.145Z,87.64
2022-09-28T05:28:26.133Z,87.52
2022-09-28T05:30:52.598Z,87.29
2022-09-28T05:33:18.948Z,87.57
2022-09-28T05:35:46.475Z,87.16
2022-09-28T05:38:15.147Z,87.29
2022-09-28T05:40:41.517Z,87.26
2022-09-28T05:43:07.902Z,87.06
2022-09-28T05:45:34.308Z,87.42
2022-09-28T05:48:00.914Z,87.51
2022-09-28T05:50:27.359Z,87.33
2022-09-28T05:53:20.200Z,87.05
2022-09-28T05:55:46.561Z,87.25
2022-09-28T05:58:13.046Z,87.19
2022-09-28T06:00:39.568Z,86.92
2022-09-28T06:03:10.415Z,87.28
2022-09-28T06:05:39.165Z,87.16
2022-09-28T06:08:07.053Z,87.31
2022-09-28T06:10:34.178Z,87.42
2022-09-28T06:13:01.466Z,87.77
2022-09-28T06:15:31.664Z,87.67
2022-09-28T06:17:57.912Z,87.11
2022-09-28T06:20:25.886Z,87.45
2022-09-28T06:22:53.470Z,87.08
2022-09-28T06:25:21.468Z,87.32
2022-09-28T06:28:09.005Z,87.35
2022-09-28T06:30:38.904Z,87.03
2022-09-28T06:33:07.773Z,87.01
2022-09-28T06:35:35.297Z,87.55
2022-09-28T06:38:01.752Z,87.44
2022-09-28T06:40:29.018Z,86.66
2022-09-28T06:42:58.062Z,87.26
2022-09-28T06:45:25.785Z,87.27
2022-09-28T06:48:00.249Z,87.26
2022-09-28T06:50:28.531Z,87.23
2022-09-28T06:52:55.171Z,87.01
2022-09-28T06:55:22.064Z,86.87
2022-09-28T06:57:58.321Z,86.89
2022-09-28T07:00:25.533Z,87.26
2022-09-28T07:02:51.894Z,87.13
2022-09-28T07:05:21.536Z,86.92
2022-09-28T07:07:47.888Z,87.04
2022-09-28T07:10:14.276Z,87.02
2022-09-28T07:12:40.604Z,86.30
2022-09-28T07:15:07.555Z,86.88
2022-09-28T07:17:47.824Z,86.92
2022-09-28T07:20:21.167Z,86.77
2022-09-28T07:22:52.961Z,86.92
2022-09-28T07:25:19.290Z,86.66
2022-09-28T07:27:47.013Z,86.25
2022-09-28T07:30:14.129Z,87.22
2022-09-28T07:32:40.462Z,86.35
2022-09-28T07:35:09.080Z,86.55
2022-09-28T07:37:36.770Z,86.25
2022-09-28T07:40:24.384Z,86.23
2022-09-28T07:42:50.997Z,85.78
2022-09-28T07:45:18.058Z,85.58
2022-09-28T07:47:45.745Z,85.40
2022-09-28T07:50:12.199Z,85.40
2022-09-28T07:52:38.651Z,86.16
2022-09-28T07:55:07.322Z,86.20
2022-09-28T07:57:33.907Z,86.22
2022-09-28T08:00:02.078Z,85.96
2022-09-28T08:02:28.459Z,85.36
2022-09-28T08:04:54.886Z,85.15
2022-09-28T08:07:24.077Z,85.08
2022-09-28T08:09:51.034Z,84.88
2022-09-28T08:12:19.554Z,84.29
2022-09-28T08:14:46.756Z,83.54
2022-09-28T08:17:13.077Z,82.38
2022-09-28T08:19:58.223Z,82.33
2022-09-28T08:22:24.551Z,81.74
2022-09-28T08:24:50.916Z,81.74
2022-09-28T08:27:18.275Z,81.90
2022-09-28T08:29:44.683Z,81.13
2022-09-28T08:32:11.067Z,81.05
2022-09-28T08:34:39.244Z,80.63
2022-09-28T08:37:07.112Z,81.26
2022-09-28T08:39:34.673Z,81.26
2022-09-28T08:42:22.014Z,81.44
2022-09-28T08:44:57.758Z,80.15
2022-09-28T08:48:01.690Z,79.02
2022-09-28T08:50:31.707Z,78.62
2022-09-28T08:53:15.005Z,78.44
2022-09-28T08:55:45.200Z,77.04
2022-09-28T08:58:20.210Z,76.75
2022-09-28T09:00:50.012Z,76.78
2022-09-28T09:03:21.247Z,75.60
2022-09-28T09:05:55.896Z,75.39
2022-09-28T09:08:29.779Z,74.74
2022-09-28T09:11:20.862Z,74.97
2022-09-28T09:14:13.284Z,74.13
2022-09-28T09:17:00.440Z,74.01
2022-09-28T09:19:46.433Z,73.72
2022-09-28T09:22:29.448Z,74.11
2022-09-28T09:25:38.747Z,72.42
2022-09-28T09:28:50.292Z,72.02
2022-09-28T09:31:30.446Z,73.90
2022-09-28T09:34:05.806Z,72.89
2022-09-28T09:37:19.977Z,71.38
2022-09-28T09:40:18.523Z,71.28
2022-09-28T09:43:12.427Z,71.86
2022-09-28T09:45:56.422Z,70.98
2022-09-28T09:48:35.093Z,70.24
2022-09-28T09:51:13.498Z,69.35
2022-09-28T09:53:52.962Z,70.72
2022-09-28T09:56:45.752Z,68.80
2022-09-28T09:59:18.743Z,68.99
2022-09-28T10:01:46.295Z,67.60
2022-09-28T10:04:20.959Z,68.29
2022-09-28T10:06:49.737Z,67.55
2022-09-28T10:09:38.935Z,66.55
2022-09-28T10:12:09.725Z,66.24
2022-09-28T10:14:36.237Z,66.51
2022-09-28T10:17:04.407Z,66.42
2022-09-28T10:19:33.513Z,66.75
2022-09-28T10:22:03.559Z,67.58
2022-09-28T10:24:40.183Z,67.74
2022-09-28T10:27:13.058Z,65.93
2022-09-28T10:29:50.935Z,66.96
2022-09-28T10:32:20.677Z,66.56
2022-09-28T10:34:50.269Z,64.77
2022-09-28T10:37:18.854Z,65.49
2022-09-28T10:39:47.278Z,64.89
2022-09-28T10:42:21.422Z,63.83
2022-09-28T10:44:53.190Z,63.71
2022-09-28T10:47:22.298Z,63.76
2022-09-28T10:49:51.589Z,63.35
2022-09-28T10:52:38.131Z,62.92
2022-09-28T10:55:26.533Z,63.16
2022-09-28T10:57:53.152Z,63.46
2022-09-28T11:00:41.773Z,61.71
2022-09-28T11:03:20.774Z,61.81
2022-09-28T11:06:02.867Z,61.35
2022-09-28T11:08:42.526Z,61.18
2022-09-28T11:11:15.535Z,60.58
2022-09-28T11:13:52.270Z,61.37
2022-09-28T11:16:30.636Z,61.17
2022-09-28T11:18:59.414Z,60.75
2022-09-28T11:21:28.776Z,61.13
2022-09-28T11:24:20.366Z,60.65
2022-09-28T11:26:52.848Z,59.87
2022-09-28T11:29:23.499Z,59.59
2022-09-28T11:31:50.497Z,60.40
2022-09-28T11:34:36.223Z,60.78
2022-09-28T11:37:18.741Z,58.19
2022-09-28T11:40:05.681Z,57.96
2022-09-28T11:42:46.715Z,58.38
2022-09-28T11:45:31.429Z,57.56
2022-09-28T11:48:01.265Z,58.97
2022-09-28T11:50:35.591Z,57.93
2022-09-28T11:53:11.649Z,59.36
2022-09-28T11:55:53.504Z,59.61
2022-09-28T11:58:33.377Z,59.63
2022-09-28T12:01:18.597Z,58.61
2022-09-28T12:03:51.738Z,58.63
2022-09-28T12:06:22.124Z,58.68
2022-09-28T12:09:00.662Z,58.34
2022-09-28T12:11:35.790Z,57.83
2022-09-28T12:14:06.653Z,58.05
2022-09-28T12:17:11.485Z,58.77
2022-09-28T12:19:56.686Z,58.90
2022-09-28T12:22:30.051Z,59.12
2022-09-28T12:24:57.984Z,58.97
2022-09-28T12:27:45.026Z,57.91
2022-09-28T12:30:19.775Z,58.62
2022-09-28T12:33:09.223Z,58.11
2022-09-28T12:36:06.712Z,58.34
2022-09-28T12:38:50.856Z,58.54
2022-09-28T12:41:53.923Z,58.45
2022-09-28T12:44:49.817Z,58.67
2022-09-28T12:47:30.626Z,58.02
2022-09-28T12:53:04.975Z,57.80
2022-09-28T12:55:55.885Z,57.77
2022-09-28T12:58:29.490Z,58.74
2022-09-28T13:01:26.777Z,60.12
2022-09-28T13:04:15.979Z,60.44
2022-09-28T13:07:01.283Z,60.99
2022-09-28T13:09:31.286Z,61.28
2022-09-28T13:12:07.250Z,62.05
2022-09-28T13:14:53.164Z,61.93
2022-09-28T13:17:30.331Z,61.57
2022-09-28T13:20:08.869Z,62.97
2022-09-28T13:23:04.314Z,66.98
2022-09-28T13:25:34.657Z,70.71
2022-09-28T13:28:04.315Z,74.90
2022-09-28T13:30:35.196Z,77.93
2022-09-28T13:33:05.197Z,78.97
2022-09-28T13:35:33.200Z,81.85
2022-09-28T13:38:17.690Z,81.14
2022-09-28T13:41:06.863Z,82.06
2022-09-28T13:43:41.729Z,83.99
2022-09-28T13:46:20.992Z,84.37
2022-09-28T13:49:29.179Z,84.42
2022-09-28T13:52:18.958Z,83.73
2022-09-28T13:54:54.438Z,83.54
2022-09-28T13:57:36.027Z,81.77
2022-09-28T14:00:08.759Z,82.01
2022-09-28T14:02:46.614Z,79.89
2022-09-28T14:05:36.835Z,80.54
2022-09-28T14:08:09.233Z,78.77
2022-09-28T14:10:52.279Z,76.23
2022-09-28T14:13:40.469Z,77.22
2022-09-28T14:16:24.821Z,75.11
2022-09-28T14:18:56.436Z,72.25
2022-09-28T14:21:44.098Z,74.09
2022-09-28T14:24:21.566Z,76.38
2022-09-28T14:27:16.587Z,74.52
2022-09-28T14:29:43.221Z,74.04
2022-09-28T14:32:09.495Z,74.70
2022-09-28T14:34:43.981Z,73.96
2022-09-28T14:37:45.412Z,74.60
2022-09-28T14:40:50.234Z,75.68
2022-09-28T14:43:34.968Z,73.79
2022-09-28T14:46:23.108Z,74.05
2022-09-28T14:48:53.751Z,75.70
2022-09-28T14:51:26.389Z,75.57
2022-09-28T14:53:54.801Z,77.96
2022-09-28T14:56:21.658Z,78.05
2022-09-28T14:58:54.942Z,78.85
2022-09-28T15:01:24.598Z,79.43
2022-09-28T15:04:04.540Z,80.10
2022-09-28T15:06:51.643Z,80.23
2022-09-28T15:09:39.041Z,79.94
2022-09-28T15:12:17.931Z,78.67
2022-09-28T15:14:55.029Z,75.53
2022-09-28T15:17:25.427Z,73.69
2022-09-28T15:20:00.694Z,74.89
2022-09-28T15:22:27.211Z,75.74
2022-09-28T15:25:02.051Z,73.41
2022-09-28T15:27:36.896Z,74.89
2022-09-28T15:30:09.138Z,74.19
2022-09-28T15:32:36.017Z,74.46
2022-09-28T15:35:20.547Z,73.19
2022-09-28T15:37:52.131Z,73.25
2022-09-28T15:40:39.753Z,73.44
2022-09-28T15:43:28.914Z,74.91
2022-09-28T15:46:02.838Z,74.64
2022-09-28T15:48:37.249Z,75.25
2022-09-28T15:51:12.943Z,75.96
2022-09-28T15:53:45.874Z,75.97
2022-09-28T15:56:12.593Z,76.40
2022-09-28T15:58:39.559Z,77.51
2022-09-28T16:01:36.008Z,77.67
2022-09-28T16:04:34.385Z,78.94
2022-09-28T16:07:13.017Z,80.45
2022-09-28T16:10:00.219Z,79.58
2022-09-28T16:12:32.159Z,80.19
2022-09-28T16:15:03.860Z,81.26
2022-09-28T16:17:33.260Z,82.15
2022-09-28T16:20:18.717Z,82.91
2022-09-28T16:22:45.658Z,84.01
2022-09-28T16:25:18.882Z,84.63
2022-09-28T16:27:45.683Z,84.80
2022-09-28T16:30:21.045Z,86.06
2022-09-28T16:32:59.067Z,84.58
2022-09-28T16:35:40.769Z,85.11
2022-09-28T16:38:12.195Z,85.06
2022-09-28T16:40:49.244Z,88.90
2022-09-28T16:43:23.295Z,88.83
2022-09-28T16:45:50.143Z,89.16
2022-09-28T16:48:19.252Z,89.72
2022-09-28T16:50:46.455Z,88.82
2022-09-28T16:53:33.623Z,87.85
2022-09-28T16:56:01.468Z,88.46
2022-09-28T16:58:29.022Z,88.79
2022-09-28T17:00:55.538Z,88.56
2022-09-28T17:03:23.432Z,86.78
2022-09-28T17:05:51.233Z,87.93
2022-09-28T17:08:22.138Z,87.49
2022-09-28T17:11:14.482Z,86.78
2022-09-28T17:13:44.991Z,85.37
2022-09-28T17:16:17.913Z,86.56
2022-09-28T17:18:45.926Z,87.11
2022-09-28T17:21:18.411Z,87.43
2022-09-28T17:23:47.416Z,87.06
2022-09-28T17:26:31.651Z,86.74
2022-09-28T17:28:59.343Z,86.28
2022-09-28T17:31:26.306Z,85.64
2022-09-28T17:33:52.732Z,86.88
2022-09-28T17:36:19.219Z,86.59
2022-09-28T17:38:47.499Z,86.72
2022-09-28T17:41:20.472Z,86.89
2022-09-28T17:43:47.487Z,86.75
2022-09-28T17:46:29.922Z,86.46
2022-09-28T17:48:59.633Z,86.90
2022-09-28T17:51:30.999Z,86.55
2022-09-28T17:53:58.186Z,86.73
2022-09-28T17:56:27.549Z,86.68
2022-09-28T17:58:59.719Z,86.44
2022-09-28T18:01:26.148Z,86.42
2022-09-28T18:03:52.568Z,86.60
2022-09-28T18:06:23.615Z,86.27
2022-09-28T18:08:50.238Z,86.07
2022-09-28T18:11:19.475Z,86.05
2022-09-28T18:13:46.893Z,86.46
2022-09-28T18:16:14.496Z,86.77
2022-09-28T18:18:40.985Z,85.55
2022-09-28T18:21:08.034Z,85.42
2022-09-28T18:23:38.720Z,86.35
2022-09-28T18:26:11.080Z,85.42
2022-09-28T18:28:37.444Z,85.34
2022-09-28T18:31:08.455Z,85.16
2022-09-28T18:33:50.642Z,84.80
2022-09-28T18:36:17.076Z,84.69
2022-09-28T18:38:43.408Z,84.47
2022-09-28T18:41:15.295Z,85.59
2022-09-28T18:43:49.219Z,86.04
2022-09-28T18:46:18.144Z,86.34
2022-09-28T18:48:44.944Z,86.79
2022-09-28T18:51:12.284Z,86.25
2022-09-28T18:53:39.872Z,85.44
2022-09-28T18:56:11.968Z,86.30
2022-09-28T18:58:40.218Z,86.44
2022-09-28T19:01:31.548Z,85.71
2022-09-28T19:04:00.415Z,85.62
2022-09-28T19:06:27.045Z,85.81
2022-09-28T19:08:55.886Z,86.69
2022-09-28T19:11:23.086Z,86.37
2022-09-28T19:13:49.404Z,85.03
2022-09-28T19:16:21.671Z,85.07
2022-09-28T19:18:48.512Z,85.32
2022-09-28T19:21:15.662Z,85.23
2022-09-28T19:23:49.026Z,85.55
2022-09-28T19:26:20.264Z,85.35
2022-09-28T19:28:47.093Z,85.44
2022-09-28T19:31:13.422Z,85.74
2022-09-28T19:33:40.657Z,86.31
2022-09-28T19:36:15.448Z,86.16
2022-09-28T19:38:42.190Z,85.29
2022-09-28T19:41:10.010Z,84.74
2022-09-28T19:43:36.469Z,85.18
2022-09-28T19:46:05.536Z,85.11
2022-09-28T19:48:33.670Z,85.72
2022-09-28T19:51:05.970Z,85.62
2022-09-28T19:53:36.540Z,85.34
2022-09-28T19:56:05.278Z,86.16
2022-09-28T19:58:34.181Z,86.36
2022-09-28T20:01:00.807Z,86.75
2022-09-28T20:03:28.158Z,85.80
2022-09-28T20:05:59.118Z,85.79
2022-09-28T20:08:26.420Z,86.03
2022-09-28T20:10:54.611Z,85.96
2022-09-28T20:13:21.652Z,85.31
2022-09-28T20:15:48.373Z,85.96
2022-09-28T20:18:14.940Z,86.19
2022-09-28T20:20:42.466Z,86.16
2022-09-28T20:23:09.402Z,85.69
2022-09-28T20:25:35.811Z,86.75
2022-09-28T20:28:02.341Z,86.05
2022-09-28T20:30:28.625Z,85.41
2022-09-28T20:32:54.991Z,85.61
2022-09-28T20:35:32.272Z,84.88
2022-09-28T20:38:07.654Z,85.66
2022-09-28T20:40:35.130Z,85.74
2022-09-28T20:43:01.554Z,85.67
2022-09-28T20:45:27.977Z,86.02
2022-09-28T20:47:54.343Z,85.53
2022-09-28T20:50:21.946Z,86.35
2022-09-28T20:52:48.409Z,86.53
2022-09-28T20:55:14.829Z,86.27
2022-09-28T20:57:41.162Z,85.75
2022-09-28T21:00:09.938Z,85.82
2022-09-28T21:02:36.324Z,86.35
2022-09-28T21:05:02.713Z,86.01
2022-09-28T21:07:29.054Z,85.31
2022-09-28T21:09:55.344Z,85.36
2022-09-28T21:12:21.701Z,86.02
2022-09-28T21:14:48.019Z,86.07
2022-09-28T21:17:14.802Z,85.72
2022-09-28T21:19:41.115Z,85.80
2022-09-28T21:22:07.566Z,85.87
2022-09-28T21:24:33.869Z,85.79
2022-09-28T21:27:00.177Z,85.54
2022-09-28T21:29:26.609Z,85.19
2022-09-28T21:31:52.931Z,84.65
2022-09-28T21:34:21.692Z,84.97
2022-09-28T21:36:50.999Z,86.09
2022-09-28T21:39:18.074Z,86.20
2022-09-28T21:41:44.805Z,86.61
2022-09-28T21:44:11.152Z,86.50
2022-09-28T21:46:38.375Z,87.58
2022-09-28T21:49:07.363Z,87.82
2022-09-28T21:51:34.986Z,87.89
2022-09-28T21:54:01.324Z,88.03
2022-09-28T21:56:27.734Z,87.75
2022-09-28T21:58:54.090Z,87.18
2022-09-28T22:01:23.349Z,87.08
2022-09-28T22:03:52.289Z,87.04
2022-09-28T22:06:20.796Z,87.10
2022-09-28T22:08:48.586Z,86.68
2022-09-28T22:11:17.267Z,86.76
2022-09-28T22:13:48.928Z,87.08
2022-09-28T22:16:17.498Z,86.91
2022-09-28T22:18:44.401Z,87.25
2022-09-28T22:21:17.504Z,86.28
2022-09-28T22:23:44.310Z,86.31
2022-09-28T22:26:17.934Z,85.96
2022-09-28T22:28:51.222Z,85.17
2022-09-28T22:31:19.456Z,85.34
2022-09-28T22:33:46.118Z,86.10
2022-09-28T22:36:16.820Z,86.01
2022-09-28T22:38:47.494Z,85.99
2022-09-28T22:41:15.896Z,85.44
2022-09-28T22:43:42.964Z,85.62
2022-09-28T22:46:14.906Z,85.58
2022-09-28T22:48:44.087Z,85.61
2022-09-28T22:51:10.424Z,85.60
2022-09-28T22:53:36.729Z,86.00
2022-09-28T22:56:05.490Z,85.83
2022-09-28T22:58:32.974Z,85.77
2022-09-28T23:01:13.418Z,85.73
2022-09-28T23:03:40.414Z,86.08
2022-09-28T23:06:08.181Z,86.17
2022-09-28T23:08:35.362Z,85.87
2022-09-28T23:11:02.167Z,86.72
2022-09-28T23:13:30.869Z,86.15
2022-09-28T23:16:08.976Z,85.92
2022-09-28T23:18:37.315Z,85.93
2022-09-28T23:21:10.764Z,85.83
2022-09-28T23:23:37.096Z,85.59
2022-09-28T23:26:11.893Z,85.31
2022-09-28T23:28:38.387Z,85.95
2022-09-28T23:31:14.329Z,86.23
2022-09-28T23:33:41.015Z,85.99
2022-09-28T23:36:07.911Z,86.00
2022-09-28T23:38:34.579Z,85.53
2022-09-28T23:41:01.077Z,85.13
2022-09-28T23:43:27.479Z,85.48
2022-09-28T23:45:53.897Z,85.58
2022-09-28T23:48:20.205Z,85.32
2022-09-28T23:50:46.536Z,85.10
2022-09-28T23:53:14.359Z,84.84
2022-09-28T23:55:42.778Z,85.35
2022-09-28T23:58:10.249Z,84.75
